Time;durP1;ratioP1;P1;durP2;ratioP2;P2;SDS_P1;SDS_P2;PMS_P1;PMS_P2;Temp;Humidity;BMP_temperature;BMP_pressure;BME280_temperature;BME280_humidity;BME280_pressure;Samples;Min_cycle;Max_cycle;Signal;HPM_P1;HPM_P2
2022/02/08 00:02:15;;;;;;;5.15;0.98;;;;;;;4.51;57.25;100220.63;4447607;32;33597;-82
2022/02/08 00:04:44;;;;;;;6.47;1.12;;;;;;;4.88;56.16;100229.72;4441202;32;34075;-83
2022/02/08 00:07:12;;;;;;;6.50;1.45;;;;;;;4.55;57.42;100231.03;4446376;32;33708;-82
2022/02/08 00:09:40;;;;;;;9.85;2.10;;;;;;;4.74;56.73;100242.12;4457144;32;34210;-82
2022/02/08 00:12:12;;;;;;;4.68;1.58;;;;;;;4.98;56.05;100251.41;4450337;32;33703;-83
2022/02/08 00:14:39;;;;;;;4.85;1.00;;;;;;;4.82;56.63;100261.22;4449393;32;33270;-83
2022/02/08 00:17:07;;;;;;;5.20;0.80;;;;;;;4.93;56.33;100284.63;4438117;32;33423;-83
2022/02/08 00:19:36;;;;;;;4.47;0.93;;;;;;;5.02;55.96;100284.50;4456958;32;33489;-83
2022/02/08 00:22:04;;;;;;;4.75;1.42;;;;;;;4.63;57.44;100288.50;4459724;32;33404;-82
2022/02/08 00:24:33;;;;;;;4.90;0.68;;;;;;;4.58;57.78;100282.44;4459190;32;34494;-83
2022/02/08 00:27:01;;;;;;;1.58;1.10;;;;;;;4.76;57.16;100282.22;4433225;32;35413;-82
2022/02/08 00:29:29;;;;;;;1.37;0.70;;;;;;;4.84;56.60;100296.09;4447688;32;34383;-82
2022/02/08 00:31:56;;;;;;;4.90;0.70;;;;;;;4.78;56.77;100304.00;4446332;32;32726;-82
2022/02/08 00:34:24;;;;;;;5.40;1.33;;;;;;;4.94;56.47;100314.25;4459549;32;33957;-82
2022/02/08 00:36:52;;;;;;;3.58;0.80;;;;;;;5.02;55.99;100328.13;4433571;32;32899;-81
2022/02/08 00:39:20;;;;;;;3.42;0.80;;;;;;;5.09;55.73;100332.41;4444674;32;33620;-81
2022/02/08 00:41:48;;;;;;;4.75;1.23;;;;;;;4.76;57.02;100339.78;4460403;32;33658;-81
2022/02/08 00:44:21;;;;;;;7.07;1.58;;;;;;;5.01;56.29;100342.09;4448815;32;33682;-82
2022/02/08 00:47:11;;;;;;;4.97;1.05;;;;;;;5.23;55.65;100340.97;4458482;32;34794;-82
2022/02/08 00:49:40;;;;;;;6.97;1.58;;;;;;;5.06;56.00;100343.78;4461023;32;33008;-82
2022/02/08 00:52:14;;;;;;;3.87;1.37;;;;;;;5.44;55.02;100354.63;4441539;32;32165;-82
2022/02/08 00:54:43;;;;;;;3.67;0.88;;;;;;;5.19;55.56;100360.19;4457099;32;33467;-82
2022/02/08 00:57:12;;;;;;;6.35;1.50;;;;;;;5.31;55.33;100354.78;4466539;32;33110;-82
2022/02/08 00:59:39;;;;;;;5.55;1.85;;;;;;;4.80;56.81;100362.41;4459736;32;33415;-82
2022/02/08 01:02:08;;;;;;;1.40;0.50;;;;;;;4.93;56.39;100362.25;4455467;32;33823;-82
2022/02/08 01:04:36;;;;;;;5.50;1.35;;;;;;;4.85;56.59;100355.37;4446366;32;34262;-82
2022/02/08 01:07:05;;;;;;;5.82;1.08;;;;;;;4.86;56.68;100359.72;4445181;32;33628;-82
2022/02/08 01:12:01;;;;;;;4.05;1.02;;;;;;;4.85;56.69;100371.09;4446256;32;32675;-82
2022/02/08 01:14:31;;;;;;;3.28;1.00;;;;;;;4.42;57.83;100380.25;4458510;32;33468;-82
2022/02/08 01:16:59;;;;;;;4.22;1.23;;;;;;;5.11;55.82;100388.22;4442620;32;33912;-82
2022/02/08 01:19:26;;;;;;;3.03;1.25;;;;;;;4.54;57.13;100395.81;4432903;32;32595;-82
2022/02/08 01:21:54;;;;;;;5.18;0.90;;;;;;;4.63;56.91;100388.75;4456943;32;33513;-82
2022/02/08 01:24:22;;;;;;;7.18;1.27;;;;;;;4.83;56.74;100393.75;4460612;32;33196;-82
2022/02/08 01:27:07;;;;;;;3.22;1.48;;;;;;;4.85;56.38;100392.00;4459356;32;33864;-82
2022/02/08 01:35:47;;;;;;;4.10;1.25;;;;;;;4.55;56.85;100414.09;4457248;32;34618;-82
2022/02/08 01:48:41;;;;;;;2.28;0.90;;;;;;;4.83;55.87;100446.09;4457757;32;35109;-81
2022/02/08 01:51:08;;;;;;;8.50;0.98;;;;;;;5.03;55.03;100447.63;4446301;32;33676;-83
2022/02/08 01:53:36;;;;;;;4.53;0.90;;;;;;;4.15;57.62;100452.78;4436325;32;32116;-82
2022/02/08 01:56:05;;;;;;;5.37;1.02;;;;;;;4.77;55.83;100454.00;4465050;32;33877;-82
2022/02/08 01:58:32;;;;;;;5.18;0.98;;;;;;;4.84;55.68;100455.69;4437827;32;33887;-82
2022/02/08 02:01:01;;;;;;;3.62;0.95;;;;;;;4.86;55.55;100468.75;4455462;32;32012;-82
2022/02/08 02:03:29;;;;;;;3.10;0.98;;;;;;;5.13;54.72;100475.47;4457437;32;33327;-82
2022/02/08 02:05:56;;;;;;;3.25;0.93;;;;;;;5.08;54.61;100474.63;4459391;32;34567;-81
2022/02/08 02:08:24;;;;;;;3.40;0.80;;;;;;;5.23;54.21;100477.09;4447148;32;34445;-82
2022/02/08 02:10:53;;;;;;;2.58;0.70;;;;;;;5.23;54.19;100486.72;4456444;32;34414;-83
2022/02/08 02:16:09;;;;;;;1.33;0.68;;;;;;;5.34;53.89;100498.78;4462608;32;33906;-83
2022/02/08 02:18:37;;;;;;;5.40;0.88;;;;;;;5.16;54.26;100498.97;4448089;32;32940;-83
2022/02/08 02:21:05;;;;;;;6.15;0.75;;;;;;;4.73;55.64;100494.16;4461714;32;33759;-83
2022/02/08 02:23:38;;;;;;;2.83;0.85;;;;;;;5.06;54.62;100484.25;4461507;32;33295;-83
2022/02/08 02:26:07;;;;;;;4.22;1.15;;;;;;;4.87;55.09;100494.91;4445559;32;33823;-84
2022/02/08 02:28:36;;;;;;;4.15;1.05;;;;;;;4.94;54.82;100500.06;4440090;32;32760;-83
2022/02/08 02:31:04;;;;;;;4.70;0.80;;;;;;;4.26;56.79;100511.09;4461238;32;33026;-83
2022/02/08 02:33:32;;;;;;;7.93;1.65;;;;;;;4.50;55.93;100519.63;4446324;32;32903;-83
2022/02/08 02:36:00;;;;;;;4.65;1.30;;;;;;;4.91;54.93;100518.44;4447818;32;33762;-83
2022/02/08 02:38:28;;;;;;;2.03;1.00;;;;;;;4.92;54.35;100512.31;4447591;32;34703;-82
2022/02/08 02:40:57;;;;;;;2.87;0.82;;;;;;;5.26;53.51;100518.94;4436899;32;32540;-83
2022/02/08 02:43:30;;;;;;;5.32;0.80;;;;;;;4.95;54.50;100533.22;4460005;32;33335;-83
2022/02/08 02:46:01;;;;;;;2.83;0.68;;;;;;;5.06;54.18;100536.59;4449844;32;34609;-83
2022/02/08 02:48:29;;;;;;;1.45;0.70;;;;;;;5.17;53.89;100539.97;4450606;32;32348;-82
2022/02/08 02:50:56;;;;;;;5.28;1.02;;;;;;;4.84;54.78;100547.28;4453595;32;34601;-81
2022/02/08 02:53:26;;;;;;;3.67;1.02;;;;;;;5.08;54.31;100551.44;4448140;32;34507;-82
2022/02/08 02:55:54;;;;;;;4.32;0.85;;;;;;;4.98;54.51;100541.91;4462403;32;32178;-82
2022/02/08 02:58:27;;;;;;;4.40;1.83;;;;;;;5.04;54.46;100548.84;4469354;32;33852;-82
2022/02/08 03:17:59;;;;;;;2.58;0.98;;;;;;;4.73;55.79;100570.03;4459204;32;33088;-83
2022/02/08 03:20:27;;;;;;;3.78;0.90;;;;;;;4.83;55.46;100569.06;4434758;32;34469;-83
2022/02/08 03:22:56;;;;;;;1.62;0.50;;;;;;;4.90;55.33;100582.13;4464600;32;33655;-81
2022/02/08 03:25:23;;;;;;;4.87;1.12;;;;;;;4.71;55.97;100584.00;4450460;32;32896;-81
2022/02/08 03:27:53;;;;;;;7.37;1.05;;;;;;;5.13;54.67;100582.81;4457004;32;32311;-83
2022/02/08 03:30:21;;;;;;;3.28;0.90;;;;;;;4.88;55.18;100590.84;4450934;32;34029;-83
2022/02/08 03:32:49;;;;;;;4.47;0.77;;;;;;;4.93;55.22;100597.78;4453296;32;34394;-83
2022/02/08 03:35:17;;;;;;;4.22;0.88;;;;;;;4.80;55.14;100608.38;4434211;32;32504;-83
2022/02/08 03:37:56;;;;;;;5.25;0.85;;;;;;;4.81;55.47;100615.31;4447133;32;33683;-83
2022/02/08 03:40:51;;;;;;;3.83;1.05;;;;;;;5.11;54.55;100611.59;4453895;32;33665;-84
2022/02/08 03:45:54;;;;;;;3.05;1.05;;;;;;;4.56;56.20;100624.22;4457513;32;33667;-83
2022/02/08 03:48:25;;;;;;;4.57;1.45;;;;;;;4.69;56.02;100631.09;4435220;32;32699;-83
2022/02/08 03:50:55;;;;;;;6.68;1.05;;;;;;;4.83;55.12;100637.09;4461173;32;32693;-83
2022/02/08 03:53:24;;;;;;;4.50;1.12;;;;;;;4.49;56.56;100632.97;4449636;32;33778;-83
2022/02/08 03:55:52;;;;;;;5.20;1.52;;;;;;;4.64;55.79;100643.34;4444654;32;32616;-84
2022/02/08 03:58:20;;;;;;;2.90;0.88;;;;;;;4.16;57.24;100653.16;4437115;32;33059;-83
2022/02/08 04:03:39;;;;;;;4.85;1.10;;;;;;;4.42;56.91;100673.12;4450025;32;33604;-83
2022/02/08 04:06:07;;;;;;;12.83;1.77;;;;;;;4.58;56.10;100659.94;4450369;32;32980;-83
2022/02/08 04:08:35;;;;;;;5.57;1.83;;;;;;;4.83;55.11;100665.88;4457722;32;32566;-83
2022/02/08 04:11:03;;;;;;;4.10;0.73;;;;;;;5.01;54.63;100664.03;4458529;32;34347;-83
2022/02/08 04:13:40;;;;;;;4.80;1.25;;;;;;;4.67;55.46;100669.50;4457239;32;33303;-83
2022/02/08 04:16:22;;;;;;;5.95;1.23;;;;;;;5.05;54.24;100671.00;4457460;32;33093;-82
2022/02/08 04:38:20;;;;;;;5.90;1.12;;;;;;;4.58;54.95;100706.16;4460234;32;32791;-81
2022/02/08 04:40:44;;;;;;;1.87;0.70;;;;;;;4.81;54.26;100709.53;4449079;32;31958;-82
2022/02/08 04:45:54;;;;;;;6.03;1.37;;;;;;;4.49;55.35;100730.59;4455157;32;34130;-82
2022/02/08 04:48:41;;;;;;;4.03;1.08;;;;;;;4.55;54.95;100727.94;4436019;32;33356;-82
2022/02/08 04:51:24;;;;;;;10.20;1.75;;;;;;;5.04;52.87;100712.00;4458617;32;34558;-81
2022/02/08 04:54:12;;;;;;;4.97;1.10;;;;;;;5.21;52.20;100721.47;4448257;32;33996;-81
2022/02/08 04:56:55;;;;;;;7.50;1.50;;;;;;;5.33;51.72;100729.25;4446674;32;34459;-81
2022/02/08 04:59:40;;;;;;;4.75;0.90;;;;;;;4.99;52.63;100726.00;4460399;32;32157;-81
2022/02/08 05:37:42;;;;;;;5.03;0.65;;;;;;;5.67;48.39;100757.81;4454520;32;33359;-82
2022/02/08 05:48:30;;;;;;;8.32;1.48;;;;;;;5.65;48.79;100763.06;4463934;32;31968;-82
2022/02/08 05:51:04;;;;;;;1.50;0.80;;;;;;;6.02;47.19;100768.84;4436347;32;32780;-82
2022/02/08 05:53:45;;;;;;;7.72;1.27;;;;;;;5.90;46.85;100763.72;4454265;32;32695;-82
2022/02/08 05:56:14;;;;;;;9.88;1.73;;;;;;;5.98;46.84;100771.53;4452317;32;32820;-82
2022/02/08 05:58:45;;;;;;;4.10;1.12;;;;;;;5.45;48.70;100770.19;4466638;32;33557;-83
2022/02/08 06:01:12;;;;;;;2.33;0.68;;;;;;;5.66;48.05;100770.03;4438155;32;33543;-82
2022/02/08 06:03:41;;;;;;;5.00;0.65;;;;;;;5.31;49.03;100779.00;4440429;32;33126;-83
2022/02/08 06:06:09;;;;;;;6.43;1.12;;;;;;;5.73;47.54;100781.31;4423665;32;32738;-82
2022/02/08 06:08:37;;;;;;;4.18;0.80;;;;;;;6.09;46.47;100782.78;4436623;32;34670;-83
2022/02/08 06:11:34;;;;;;;6.95;0.85;;;;;;;6.18;45.57;100776.59;4449042;32;33702;-83
2022/02/08 06:14:04;;;;;;;3.80;1.48;;;;;;;5.93;46.51;100782.06;4446869;32;33367;-83
2022/02/08 06:16:33;;;;;;;5.72;1.02;;;;;;;6.19;46.08;100789.69;4451573;32;33634;-83
2022/02/08 06:19:02;;;;;;;5.07;1.05;;;;;;;6.32;44.98;100791.31;4433699;32;33593;-82
2022/02/08 06:21:31;;;;;;;4.80;1.20;;;;;;;5.86;46.25;100798.69;4435849;32;33153;-82
2022/02/08 06:23:59;;;;;;;3.65;0.50;;;;;;;5.95;46.08;100798.66;4465252;32;32716;-82
2022/02/08 06:26:27;;;;;;;6.70;0.75;;;;;;;5.82;46.27;100796.97;4445675;32;33804;-82
2022/02/08 06:29:08;;;;;;;8.20;0.70;;;;;;;6.16;45.59;100808.06;4425344;32;32951;-82
2022/02/08 06:31:36;;;;;;;5.45;0.80;;;;;;;5.59;46.94;100810.25;4453795;32;33859;-83
2022/02/08 06:34:08;;;;;;;3.87;0.95;;;;;;;5.94;45.88;100811.78;4450843;32;33632;-83
2022/02/08 06:36:36;;;;;;;3.17;0.82;;;;;;;6.22;45.73;100813.28;4465666;32;31631;-83
2022/02/08 06:39:04;;;;;;;4.18;0.80;;;;;;;6.44;45.35;100827.00;4450841;32;35119;-83
2022/02/08 06:41:32;;;;;;;7.75;0.88;;;;;;;6.22;45.46;100835.97;4447728;32;34422;-83
2022/02/08 06:44:02;;;;;;;5.00;0.90;;;;;;;6.08;45.79;100836.13;4449756;32;31722;-83
2022/02/08 06:46:29;;;;;;;3.83;0.70;;;;;;;6.29;45.56;100835.91;4442397;32;33276;-84
2022/02/08 06:48:57;;;;;;;3.33;0.80;;;;;;;6.47;44.25;100834.00;4434095;32;32242;-83
2022/02/08 06:51:25;;;;;;;3.60;0.70;;;;;;;6.34;44.57;100843.75;4436090;32;31987;-83
2022/02/08 06:53:53;;;;;;;6.60;0.80;;;;;;;6.54;44.38;100848.78;4452686;32;34077;-83
2022/02/08 06:56:21;;;;;;;3.60;0.70;;;;;;;6.30;45.18;100840.28;4455645;32;33935;-83
2022/02/08 06:58:56;;;;;;;6.18;1.20;;;;;;;6.87;43.47;100856.28;4424288;32;32930;-83
2022/02/08 07:01:28;;;;;;;3.37;0.60;;;;;;;7.17;42.26;100846.31;4452339;32;33055;-83
2022/02/08 07:03:56;;;;;;;5.45;1.08;;;;;;;6.80;43.48;100854.63;4453643;32;32788;-83
2022/02/08 07:06:23;;;;;;;3.83;0.57;;;;;;;6.75;44.46;100853.81;4434987;32;33630;-83
2022/02/08 07:08:51;;;;;;;6.15;1.20;;;;;;;6.91;44.27;100862.38;4434032;32;34014;-83
2022/02/08 07:11:19;;;;;;;2.62;1.00;;;;;;;6.99;44.04;100859.66;4449794;32;33811;-83
2022/02/08 07:13:48;;;;;;;5.37;0.62;;;;;;;7.15;43.81;100861.19;4450568;32;33914;-83
2022/02/08 07:16:16;;;;;;;3.37;1.12;;;;;;;6.90;45.04;100876.38;4448371;32;34054;-83
2022/02/08 07:18:44;;;;;;;3.70;0.65;;;;;;;7.02;45.23;100872.75;4441023;32;32623;-83
2022/02/08 07:21:12;;;;;;;7.70;1.27;;;;;;;6.88;46.03;100871.16;4436762;32;34084;-83
2022/02/08 07:23:40;;;;;;;5.45;0.90;;;;;;;7.09;45.60;100877.91;4428815;32;31755;-83
2022/02/08 07:26:08;;;;;;;4.05;1.27;;;;;;;7.47;44.30;100868.66;4445949;32;33123;-83
2022/02/08 07:28:41;;;;;;;4.28;1.23;;;;;;;7.38;45.25;100874.91;4443154;32;32997;-83
2022/02/08 07:31:22;;;;;;;5.00;0.85;;;;;;;7.25;45.86;100877.72;4464375;32;33751;-83
2022/02/08 07:33:56;;;;;;;6.62;1.12;;;;;;;7.26;46.62;100877.69;4445596;32;33225;-83
2022/02/08 07:36:43;;;;;;;6.50;1.05;;;;;;;7.37;46.19;100881.06;4442232;32;33156;-83
2022/02/08 07:39:22;;;;;;;6.03;0.95;;;;;;;6.68;48.47;100875.75;4454919;32;34732;-83
2022/02/08 07:41:49;;;;;;;5.55;1.23;;;;;;;7.21;46.90;100858.47;4431239;32;31154;-83
2022/02/08 07:44:17;;;;;;;3.87;0.90;;;;;;;7.21;47.46;100866.38;4445590;32;32689;-83
2022/02/08 07:46:46;;;;;;;6.93;1.30;;;;;;;7.40;46.61;100862.59;4450621;32;34014;-83
2022/02/08 07:49:14;;;;;;;8.85;0.90;;;;;;;7.40;47.11;100873.12;4449892;32;34371;-83
2022/02/08 07:51:43;;;;;;;9.18;1.50;;;;;;;7.48;46.91;100865.13;4451864;32;33443;-83
2022/02/08 07:54:11;;;;;;;7.62;1.25;;;;;;;7.46;47.21;100871.31;4453068;32;34098;-83
2022/02/08 07:56:39;;;;;;;6.35;1.35;;;;;;;7.68;45.92;100867.47;4451620;32;33321;-83
2022/02/08 07:59:07;;;;;;;9.85;1.05;;;;;;;7.66;46.32;100871.91;4447000;32;33543;-83
2022/02/08 08:01:35;;;;;;;4.40;0.90;;;;;;;7.77;46.24;100869.97;4439876;32;33752;-83
2022/02/08 08:04:03;;;;;;;8.82;1.15;;;;;;;7.57;46.95;100869.41;4446702;32;33566;-83
2022/02/08 08:06:32;;;;;;;3.22;0.93;;;;;;;7.59;47.54;100880.75;4451773;32;33539;-83
2022/02/08 08:09:00;;;;;;;7.10;0.98;;;;;;;7.60;47.44;100882.50;4449249;32;36620;-83
2022/02/08 08:11:35;;;;;;;3.92;0.90;;;;;;;7.62;47.56;100885.97;4440014;32;33113;-83
2022/02/08 08:14:06;;;;;;;7.18;0.65;;;;;;;7.59;47.61;100894.75;4440471;32;33685;-83
2022/02/08 08:21:39;;;;;;;5.25;1.20;;;;;;;7.09;49.42;100898.91;4452867;32;33848;-83
2022/02/08 08:24:08;;;;;;;7.22;2.28;;;;;;;7.62;47.90;100896.47;4429173;32;31897;-83
2022/02/08 08:26:37;;;;;;;7.65;1.23;;;;;;;7.77;47.80;100906.78;4451063;32;32133;-83
2022/02/08 08:29:04;;;;;;;2.85;0.93;;;;;;;7.65;48.10;100910.47;4434064;32;33925;-83
2022/02/08 08:31:32;;;;;;;9.48;1.02;;;;;;;7.78;47.65;100911.13;4451313;32;33221;-83
2022/02/08 08:34:09;;;;;;;7.35;1.52;;;;;;;7.53;48.25;100912.38;4440268;32;32242;-83
2022/02/08 08:36:36;;;;;;;5.43;0.90;;;;;;;7.72;47.66;100918.25;4444674;32;33910;-83
2022/02/08 08:39:06;;;;;;;7.03;1.10;;;;;;;7.86;48.11;100932.94;4432544;32;34302;-83
2022/02/08 08:41:52;;;;;;;5.40;0.70;;;;;;;7.90;47.39;100910.09;4443116;32;33255;-83
2022/02/08 08:44:51;;;;;;;9.68;1.20;;;;;;;7.80;48.09;100919.03;4468856;32;31806;-83
2022/02/08 08:52:33;;;;;;;4.90;1.10;;;;;;;7.83;48.85;100917.22;4449055;32;32296;-83
2022/02/08 08:55:02;;;;;;;6.22;1.35;;;;;;;7.62;48.81;100904.38;4463330;32;33386;-83
2022/02/08 08:57:31;;;;;;;6.70;0.75;;;;;;;7.71;49.03;100901.63;4435508;32;33920;-83
2022/02/08 08:59:59;;;;;;;6.35;1.33;;;;;;;7.96;48.27;100895.09;4460623;32;34903;-83
2022/02/08 09:02:28;;;;;;;3.42;1.05;;;;;;;7.82;48.90;100894.44;4447318;32;33263;-83
2022/02/08 09:04:56;;;;;;;4.25;1.15;;;;;;;7.63;49.43;100890.31;4462513;32;32894;-83
2022/02/08 09:07:25;;;;;;;10.30;1.50;;;;;;;7.99;48.62;100882.78;4446673;32;33868;-83
2022/02/08 09:10:00;;;;;;;7.35;1.25;;;;;;;8.03;48.15;100880.09;4456973;32;34670;-83
2022/02/08 09:20:50;;;;;;;5.65;2.35;;;;;;;8.14;46.85;100862.38;4449422;32;33608;-83
2022/02/08 09:26:36;;;;;;;2.33;0.70;;;;;;;8.22;47.77;100875.41;4466537;32;33414;-84
2022/02/08 09:29:09;;;;;;;2.73;1.00;;;;;;;8.19;47.84;100888.59;4435134;32;33760;-83
2022/02/08 09:31:38;;;;;;;4.50;1.37;;;;;;;8.25;46.23;100880.59;4446490;32;32959;-83
2022/02/08 09:34:06;;;;;;;6.00;0.70;;;;;;;8.35;46.16;100884.78;4436862;32;33868;-83
2022/02/08 09:36:34;;;;;;;5.12;0.95;;;;;;;8.43;46.15;100890.84;4461186;32;32765;-83
2022/02/08 09:39:02;;;;;;;5.82;1.30;;;;;;;8.48;46.00;100900.41;4438280;32;34113;-84
2022/02/08 09:41:32;;;;;;;2.12;0.80;;;;;;;8.63;45.61;100900.12;4445250;32;33274;-83
2022/02/08 09:44:03;;;;;;;9.60;1.23;;;;;;;8.79;45.60;100901.63;4441561;32;34701;-84
2022/02/08 09:46:35;;;;;;;2.05;0.82;;;;;;;8.87;46.39;100886.50;4438753;32;31853;-84
2022/02/08 09:49:02;;;;;;;5.40;0.93;;;;;;;9.18;44.69;100891.19;4425623;32;32658;-83
2022/02/08 09:51:30;;;;;;;6.37;1.27;;;;;;;9.27;44.16;100887.50;4438093;32;33767;-83
2022/02/08 09:54:01;;;;;;;12.20;1.92;;;;;;;9.30;44.38;100880.38;4437107;32;34168;-83
2022/02/08 09:56:28;;;;;;;7.25;1.62;;;;;;;9.18;45.51;100880.66;4435348;32;34112;-84
2022/02/08 09:58:56;;;;;;;4.35;0.82;;;;;;;9.55;44.59;100882.50;4435858;32;33083;-85
2022/02/08 10:01:24;;;;;;;6.18;0.80;;;;;;;9.30;43.70;100883.00;4435653;32;34342;-85
2022/02/08 10:03:54;;;;;;;3.78;0.73;;;;;;;9.52;43.32;100879.91;4427719;32;32421;-83
2022/02/08 10:06:23;;;;;;;1.70;0.70;;;;;;;9.35;44.25;100867.09;4434044;32;33627;-83
2022/02/08 10:09:05;;;;;;;3.37;1.10;;;;;;;9.05;44.34;100866.84;4446036;32;33521;-83
2022/02/08 10:11:43;;;;;;;4.60;0.93;;;;;;;9.26;44.60;100867.28;4428260;32;33231;-83
2022/02/08 10:22:45;;;;;;;7.07;1.75;;;;;;;9.79;43.53;100852.94;4440769;32;33302;-84
2022/02/08 10:25:23;;;;;;;2.90;1.12;;;;;;;9.76;43.20;100850.34;4436063;32;34660;-83
2022/02/08 10:28:03;;;;;;;6.18;1.02;;;;;;;9.89;42.85;100843.03;4434819;32;33782;-83
2022/02/08 10:38:46;;;;;;;6.93;0.90;;;;;;;9.97;42.14;100843.72;4446574;32;32346;-83
2022/02/08 10:41:21;;;;;;;3.65;1.70;;;;;;;9.99;42.50;100840.13;4433570;32;34156;-83
2022/02/08 10:43:58;;;;;;;4.68;1.35;;;;;;;10.31;41.82;100837.59;4434978;32;32934;-83
2022/02/08 10:46:26;;;;;;;3.12;1.02;;;;;;;10.54;41.11;100836.97;4433582;32;32826;-82
2022/02/08 10:49:06;;;;;;;3.75;1.58;;;;;;;10.67;40.37;100838.38;4447712;32;34052;-83
2022/02/08 10:51:43;;;;;;;3.40;1.17;;;;;;;10.61;40.00;100843.84;4448387;32;34622;-83
2022/02/08 10:54:17;;;;;;;5.93;1.48;;;;;;;10.47;40.32;100837.16;4457186;32;33673;-83
2022/02/08 10:56:55;;;;;;;5.22;1.12;;;;;;;10.28;39.86;100830.63;4446387;32;34433;-83
2022/02/08 10:59:29;;;;;;;3.12;1.25;;;;;;;10.28;39.62;100825.34;4436065;32;33384;-85
2022/02/08 11:02:05;;;;;;;6.62;1.40;;;;;;;10.43;39.13;100830.22;4440597;32;33108;-83
2022/02/08 11:04:47;;;;;;;5.28;1.40;;;;;;;10.75;38.50;100824.06;4449436;32;34462;-84
2022/02/08 11:07:41;;;;;;;4.47;1.30;;;;;;;10.62;37.13;100835.88;4434467;32;33341;-84
2022/02/08 11:10:29;;;;;;;5.95;1.30;;;;;;;10.36;37.04;100830.44;4432801;32;33983;-84
2022/02/08 11:13:11;;;;;;;4.80;1.15;;;;;;;10.64;36.25;100833.19;4444114;32;33524;-84
2022/02/08 11:15:45;;;;;;;3.90;0.93;;;;;;;10.23;36.20;100825.44;4422012;32;32420;-84
2022/02/08 11:21:16;;;;;;;3.40;1.10;;;;;;;10.12;37.43;100837.19;4444858;32;33033;-84
2022/02/08 11:24:06;;;;;;;4.40;0.75;;;;;;;10.23;37.54;100848.31;4443792;32;34954;-84
2022/02/08 11:26:42;;;;;;;4.82;1.17;;;;;;;10.06;37.74;100839.94;4437622;32;34359;-85
2022/02/08 11:29:44;;;;;;;4.43;1.35;;;;;;;9.87;39.97;100835.12;4444342;32;33494;-86
2022/02/08 11:32:22;;;;;;;6.28;1.05;;;;;;;10.31;38.45;100841.13;4462083;32;33960;-85
2022/02/08 11:43:38;;;;;;;4.12;1.00;;;;;;;11.13;35.72;100823.87;4446273;32;32203;-84
2022/02/08 11:51:51;;;;;;;2.15;1.05;;;;;;;10.44;37.08;100821.41;4443343;32;33271;-85
2022/02/08 11:58:05;;;;;;;2.10;0.93;;;;;;;10.37;37.65;100834.78;4445770;32;33827;-84
2022/02/08 12:07:36;;;;;;;8.13;2.15;;;;;;;10.75;37.71;100839.03;4434317;32;33740;-84
2022/02/08 12:10:18;;;;;;;3.75;1.37;;;;;;;10.88;36.39;100832.50;4441194;32;34404;-85
2022/02/08 12:13:08;;;;;;;3.35;1.30;;;;;;;11.20;37.39;100831.56;4433047;32;34416;-84
2022/02/08 12:35:15;;;;;;;6.20;1.48;;;;;;;11.35;36.50;100811.75;4444907;32;34552;-85
2022/02/08 12:50:05;;;;;;;6.68;1.65;;;;;;;10.79;36.34;100810.78;4445579;32;32786;-85
2022/02/08 12:58:11;;;;;;;3.33;1.10;;;;;;;10.50;36.57;100815.94;4434370;32;33438;-85
2022/02/08 13:01:07;;;;;;;2.60;1.33;;;;;;;10.35;37.59;100819.00;4447350;32;33501;-85
2022/02/08 13:24:59;;;;;;;3.30;1.40;;;;;;;10.33;39.09;100836.66;4406173;32;33330;-85
2022/02/08 14:03:22;;;;;;;10.00;1.25;;;;;;;10.83;35.85;100800.06;4449885;32;34001;-86
2022/02/08 14:11:44;;;;;;;5.07;0.88;;;;;;;10.39;36.64;100794.22;4446382;32;33404;-86
2022/02/08 14:19:35;;;;;;;3.35;1.10;;;;;;;10.44;37.26;100794.09;4436957;32;34319;-85
2022/02/08 14:22:31;;;;;;;3.65;1.10;;;;;;;10.66;36.62;100786.47;4423570;32;34770;-85
2022/02/08 14:25:23;;;;;;;3.72;1.20;;;;;;;10.67;36.88;100793.47;4429058;32;33690;-86
2022/02/08 14:57:37;;;;;;;4.53;1.35;;;;;;;10.35;38.32;100810.19;4437784;32;33302;-85
2022/02/08 15:05:25;;;;;;;4.62;1.33;;;;;;;10.10;39.67;100783.56;4439896;32;33161;-85
2022/02/08 15:12:07;;;;;;;2.22;0.60;;;;;;;10.52;38.84;100779.78;4462738;32;33996;-85
2022/02/08 15:18:51;;;;;;;7.70;2.37;;;;;;;10.38;39.00;100789.87;4458681;32;35498;-84
2022/02/08 15:24:28;;;;;;;4.22;1.30;;;;;;;10.65;38.86;100793.53;4430834;32;33796;-85
2022/02/08 15:26:59;;;;;;;7.57;2.12;;;;;;;10.18;39.34;100802.69;4444871;32;33839;-85
2022/02/08 15:29:54;;;;;;;7.20;2.28;;;;;;;10.04;40.47;100803.06;4445647;32;34716;-85
2022/02/08 15:33:05;;;;;;;3.95;0.98;;;;;;;10.08;40.57;100815.28;4441567;32;34188;-85
2022/02/08 15:35:33;;;;;;;6.05;1.92;;;;;;;10.21;39.94;100823.75;4433134;32;33321;-84
2022/02/08 15:38:01;;;;;;;3.17;0.95;;;;;;;10.24;39.82;100831.59;4433097;32;33149;-85
2022/02/08 15:40:29;;;;;;;3.25;0.93;;;;;;;10.18;39.97;100839.66;4443487;32;33246;-85
2022/02/08 15:42:57;;;;;;;6.45;1.10;;;;;;;10.09;40.22;100834.59;4440941;32;32548;-87
2022/02/08 15:45:33;;;;;;;5.45;1.73;;;;;;;10.38;39.90;100836.53;4435725;32;32990;-87
2022/02/08 15:48:02;;;;;;;7.30;1.35;;;;;;;10.21;40.80;100834.31;4445933;32;34023;-86
2022/02/08 15:53:28;;;;;;;2.78;1.23;;;;;;;10.20;40.64;100822.84;4451030;32;33710;-87
2022/02/08 16:01:08;;;;;;;4.10;1.10;;;;;;;10.15;41.30;100793.06;4443418;32;33940;-87
2022/02/08 16:09:06;;;;;;;1.60;0.85;;;;;;;9.96;41.62;100812.94;4448952;32;32491;-87
2022/02/08 16:15:12;;;;;;;6.50;1.65;;;;;;;9.82;42.06;100804.50;4459075;32;34852;-87
2022/02/08 16:20:35;;;;;;;7.05;1.48;;;;;;;9.97;42.20;100815.56;4421792;32;32631;-87
2022/02/08 16:45:59;;;;;;;5.05;1.70;;;;;;;10.17;42.40;100806.25;4433759;32;32720;-87
2022/02/08 16:53:11;;;;;;;4.43;2.15;;;;;;;10.22;43.23;100799.09;4465877;32;32867;-86
2022/02/08 16:55:51;;;;;;;5.97;2.33;;;;;;;10.33;43.39;100793.53;4458574;32;33944;-86
2022/02/08 17:00:49;;;;;;;5.93;1.70;;;;;;;10.13;44.24;100804.59;4442665;32;33299;-86
2022/02/08 17:03:43;;;;;;;3.10;1.77;;;;;;;9.92;45.12;100806.87;4436191;32;33890;-86
2022/02/08 17:06:16;;;;;;;5.50;1.40;;;;;;;10.33;44.07;100799.69;4436427;32;33148;-86
2022/02/08 17:08:52;;;;;;;9.10;2.20;;;;;;;10.40;43.65;100796.00;4435166;32;32658;-87
2022/02/08 17:11:36;;;;;;;9.05;2.75;;;;;;;10.25;43.93;100793.72;4437830;32;32595;-88
2022/02/08 17:49:46;;;;;;;4.03;2.10;;;;;;;9.69;46.82;100773.16;4439306;32;32821;-89
2022/02/08 17:52:13;;;;;;;2.67;1.37;;;;;;;9.59;47.04;100773.41;4431718;32;32815;-88
2022/02/08 17:54:41;;;;;;;4.57;1.70;;;;;;;9.56;47.07;100770.84;4434062;32;34155;-89
2022/02/08 17:57:09;;;;;;;9.88;2.90;;;;;;;9.90;46.66;100768.25;4427301;32;32557;-89
2022/02/08 17:59:36;;;;;;;9.55;3.42;;;;;;;10.21;45.63;100768.31;4437719;32;32971;-88
2022/02/08 18:02:06;;;;;;;6.53;2.50;;;;;;;10.16;45.96;100759.63;4439236;32;33414;-88
2022/02/08 18:04:33;;;;;;;10.93;2.72;;;;;;;10.07;46.11;100760.75;4438281;32;32578;-89
2022/02/08 18:07:03;;;;;;;5.80;2.40;;;;;;;9.59;47.86;100760.22;4443695;32;33790;-89
2022/02/08 18:09:32;;;;;;;6.37;2.17;;;;;;;9.91;47.19;100759.41;4443987;32;33878;-88
2022/02/08 18:12:01;;;;;;;9.20;2.50;;;;;;;10.00;46.92;100757.41;4439225;32;33341;-87
2022/02/08 18:14:29;;;;;;;3.50;1.75;;;;;;;9.96;47.04;100758.38;4438015;32;31998;-88
2022/02/08 18:17:15;;;;;;;6.30;1.50;;;;;;;9.98;47.20;100753.09;4436827;32;33459;-88
2022/02/08 18:19:50;;;;;;;8.57;1.90;;;;;;;9.90;47.70;100750.62;4431405;32;32690;-87
2022/02/08 18:22:30;;;;;;;4.82;2.03;;;;;;;9.88;47.65;100752.47;4423239;32;32657;-87
2022/02/08 19:17:12;;;;;;;5.25;2.08;;;;;;;9.34;49.61;100755.53;4438162;32;34114;-88
2022/02/08 19:20:21;;;;;;;4.87;2.15;;;;;;;10.03;48.03;100755.59;4433573;32;31034;-87
2022/02/08 19:22:41;;;;;;;8.63;3.55;;;;;;;10.00;48.41;100753.91;4437947;32;32619;-87
2022/02/08 19:25:09;;;;;;;5.37;2.75;;;;;;;10.16;48.06;100746.44;4438778;32;34077;-87
2022/02/08 19:27:40;;;;;;;5.78;3.00;;;;;;;10.12;48.11;100760.66;4442711;32;32058;-87
2022/02/08 19:30:11;;;;;;;6.62;2.50;;;;;;;10.22;47.83;100767.41;4436601;32;35746;-87
2022/02/08 19:32:40;;;;;;;7.30;2.67;;;;;;;9.84;48.77;100771.03;4436153;32;31997;-87
2022/02/08 19:35:13;;;;;;;4.00;2.20;;;;;;;9.78;49.13;100777.34;4436888;32;33368;-88
2022/02/08 19:37:43;;;;;;;9.90;3.10;;;;;;;9.88;48.66;100773.56;4446029;32;34016;-87
2022/02/08 19:40:11;;;;;;;5.62;3.17;;;;;;;9.95;48.90;100769.84;4446883;32;33985;-88
2022/02/08 19:42:41;;;;;;;6.07;3.08;;;;;;;10.21;48.23;100770.97;4429799;32;32246;-88